Time;durP1;ratioP1;P1;durP2;ratioP2;P2;SDS_P1;SDS_P2;PMS_P1;PMS_P2;Temp;Humidity;BMP_temperature;BMP_pressure;BME280_temperature;BME280_humidity;BME280_pressure;Samples;Min_cycle;Max_cycle;Signal;HPM_P1;HPM_P2
2024/04/12 00:02:01;;;;;;;6.70;5.07;;;;;;;6.63;100.00;99235.38;6831610;26;20291;-61
2024/04/12 00:05:04;;;;;;;5.67;4.83;;;;;;;6.65;100.00;99233.34;6830226;26;20276;-56
2024/04/12 00:08:07;;;;;;;8.90;5.33;;;;;;;6.65;100.00;99243.94;6806163;25;20812;-61
2024/04/12 00:11:10;;;;;;;7.33;5.10;;;;;;;6.65;100.00;99236.84;6843509;26;20264;-56
2024/04/12 00:14:16;;;;;;;7.80;5.23;;;;;;;6.81;100.00;99233.22;6826801;25;20302;-59
2024/04/12 00:17:18;;;;;;;6.53;4.90;;;;;;;6.82;100.00;99234.06;6808132;26;20241;-59
2024/04/12 00:20:22;;;;;;;5.77;4.83;;;;;;;6.77;100.00;99228.47;6842707;26;20297;-61
2024/04/12 00:23:27;;;;;;;6.60;5.60;;;;;;;6.61;100.00;99221.50;6828040;26;20233;-60
2024/04/12 00:26:30;;;;;;;6.53;5.03;;;;;;;6.57;100.00;99228.97;6825280;26;20283;-59
2024/04/12 00:29:39;;;;;;;8.03;5.23;;;;;;;6.53;100.00;99218.91;6826439;26;20236;-57
2024/04/12 00:32:43;;;;;;;7.97;5.10;;;;;;;6.56;100.00;99221.22;6828147;26;20246;-57
2024/04/12 00:35:49;;;;;;;7.27;5.13;;;;;;;6.43;100.00;99216.50;6823101;26;20320;-61
2024/04/12 00:38:55;;;;;;;7.50;5.13;;;;;;;6.59;100.00;99221.66;6826605;26;20279;-61
2024/04/12 00:41:59;;;;;;;9.87;6.10;;;;;;;6.57;100.00;99214.91;6794221;26;20249;-60
2024/04/12 00:45:11;;;;;;;9.70;5.50;;;;;;;6.54;100.00;99216.06;6803413;26;20227;-58
2024/04/12 00:48:21;;;;;;;9.30;5.40;;;;;;;6.55;100.00;99219.53;6834768;26;20281;-58
2024/04/12 00:51:27;;;;;;;9.63;5.37;;;;;;;6.53;100.00;99213.59;6821743;25;20280;-61
2024/04/12 00:54:32;;;;;;;5.53;4.90;;;;;;;6.51;100.00;99212.97;6822892;26;20325;-62
2024/04/12 00:57:37;;;;;;;6.30;4.80;;;;;;;6.53;100.00;99210.97;6831943;25;20236;-54
2024/04/12 01:00:46;;;;;;;5.63;4.70;;;;;;;6.48;100.00;99211.50;6834573;26;20245;-56
2024/04/12 01:03:53;;;;;;;6.47;5.63;;;;;;;6.50;100.00;99206.00;6822954;26;20588;-61
2024/04/12 01:06:58;;;;;;;8.70;5.80;;;;;;;6.52;100.00;99209.31;6835942;26;20283;-61
2024/04/12 01:10:02;;;;;;;9.17;5.80;;;;;;;6.42;100.00;99210.38;6790853;26;20281;-58
2024/04/12 01:13:05;;;;;;;7.47;5.17;;;;;;;6.40;100.00;99214.19;6786384;26;20267;-59
2024/04/12 01:16:10;;;;;;;6.33;4.87;;;;;;;6.47;100.00;99208.03;6830695;25;20240;-60
2024/04/12 01:19:13;;;;;;;6.77;5.23;;;;;;;6.42;100.00;99209.56;6832434;26;20288;-60
2024/04/12 01:22:15;;;;;;;5.77;5.17;;;;;;;6.37;100.00;99206.63;6831125;26;20244;-58
2024/04/12 01:25:18;;;;;;;7.90;5.37;;;;;;;6.28;100.00;99203.19;6838054;26;20535;-59
2024/04/12 01:28:20;;;;;;;7.57;5.50;;;;;;;6.22;100.00;99214.50;6795446;26;20234;-59
2024/04/12 01:31:23;;;;;;;9.50;5.57;;;;;;;6.16;100.00;99212.56;6839146;25;20340;-61
2024/04/12 01:34:26;;;;;;;6.20;5.60;;;;;;;6.17;100.00;99207.09;6831367;26;20319;-58
2024/04/12 01:37:32;;;;;;;10.30;5.93;;;;;;;6.13;100.00;99207.63;6831625;26;20237;-61
2024/04/12 01:40:36;;;;;;;7.23;5.30;;;;;;;6.33;100.00;99203.50;6824066;26;20291;-61
2024/04/12 01:43:38;;;;;;;5.93;4.93;;;;;;;6.23;100.00;99213.50;6816066;26;20933;-59
2024/04/12 01:46:41;;;;;;;8.53;5.47;;;;;;;6.17;100.00;99207.09;6796608;26;20237;-60
2024/04/12 01:49:43;;;;;;;10.50;5.93;;;;;;;6.16;100.00;99213.38;6837578;25;20292;-59
2024/04/12 01:52:55;;;;;;;6.80;5.43;;;;;;;6.25;100.00;99203.53;6846454;26;20285;-58
2024/04/12 01:55:59;;;;;;;10.03;5.93;;;;;;;6.30;100.00;99214.44;6825359;26;20286;-61
2024/04/12 01:59:02;;;;;;;8.30;5.97;;;;;;;6.24;100.00;99215.13;6837998;26;20241;-58
2024/04/12 02:02:04;;;;;;;6.90;5.60;;;;;;;6.18;100.00;99211.38;6828700;26;20590;-61
2024/04/12 02:05:09;;;;;;;5.80;5.20;;;;;;;6.09;100.00;99212.44;6844038;26;20278;-61
2024/04/12 02:08:16;;;;;;;8.40;5.77;;;;;;;6.15;100.00;99210.91;6843003;26;20238;-58
2024/04/12 02:11:23;;;;;;;7.13;5.53;;;;;;;6.08;100.00;99212.59;6836593;26;20347;-61
2024/04/12 02:14:28;;;;;;;11.13;5.50;;;;;;;6.06;100.00;99212.78;6829759;26;20317;-58
2024/04/12 02:17:31;;;;;;;9.33;5.63;;;;;;;5.86;100.00;99195.66;6838124;25;20308;-60
2024/04/12 02:20:34;;;;;;;10.10;5.87;;;;;;;6.04;100.00;99216.59;6834590;25;20738;-56
2024/04/12 02:23:38;;;;;;;10.70;5.70;;;;;;;6.01;100.00;99214.28;6816401;26;20345;-61
2024/04/12 02:26:42;;;;;;;5.93;4.80;;;;;;;5.99;100.00;99219.75;6829754;26;21270;-58
2024/04/12 02:29:46;;;;;;;6.70;5.40;;;;;;;5.87;100.00;99213.19;6832630;26;21174;-60
2024/04/12 02:32:50;;;;;;;8.63;5.90;;;;;;;5.87;100.00;99214.03;6820114;26;20636;-60
2024/04/12 02:36:03;;;;;;;7.80;6.37;;;;;;;5.94;100.00;99214.19;6806586;26;20233;-61
2024/04/12 02:39:08;;;;;;;7.37;6.00;;;;;;;5.94;100.00;99209.69;6805717;26;20294;-60
2024/04/12 02:42:17;;;;;;;6.90;5.00;;;;;;;6.05;100.00;99212.94;6806865;26;20380;-61
2024/04/12 02:45:20;;;;;;;7.57;5.90;;;;;;;5.78;100.00;99198.38;6808739;26;20246;-58
2024/04/12 02:48:23;;;;;;;9.73;6.13;;;;;;;5.85;100.00;99221.28;6806101;26;20285;-60
2024/04/12 02:51:29;;;;;;;8.40;5.63;;;;;;;5.86;100.00;99220.31;6824008;26;20267;-61
2024/04/12 02:54:32;;;;;;;9.43;6.57;;;;;;;5.98;100.00;99218.13;6786701;26;20255;-58
2024/04/12 02:57:34;;;;;;;10.27;6.20;;;;;;;5.94;100.00;99230.03;6806875;26;20237;-59
2024/04/12 03:00:38;;;;;;;7.70;6.23;;;;;;;5.99;100.00;99224.22;6801450;26;20245;-58
2024/04/12 03:03:47;;;;;;;8.07;6.40;;;;;;;5.94;100.00;99222.94;6794766;26;20326;-58
2024/04/12 03:06:49;;;;;;;8.47;6.53;;;;;;;5.88;100.00;99223.59;6818416;26;20307;-60
2024/04/12 03:09:53;;;;;;;14.20;7.63;;;;;;;5.84;100.00;99222.28;6812026;26;20780;-61
2024/04/12 03:12:55;;;;;;;11.50;7.57;;;;;;;5.80;100.00;99210.41;6800963;26;20280;-62
2024/04/12 03:15:58;;;;;;;8.73;7.13;;;;;;;5.92;100.00;99224.94;6805444;26;20347;-61
2024/04/12 03:19:07;;;;;;;8.47;6.60;;;;;;;5.87;100.00;99203.44;6796687;26;20235;-58
2024/04/12 03:22:10;;;;;;;9.43;7.30;;;;;;;5.92;100.00;99226.75;6807393;26;20236;-61
2024/04/12 03:25:15;;;;;;;10.73;7.40;;;;;;;6.02;100.00;99226.53;6814086;26;20287;-61
2024/04/12 03:28:18;;;;;;;9.30;7.33;;;;;;;5.83;100.00;99222.47;6824893;26;20240;-59
2024/04/12 03:31:26;;;;;;;7.60;6.80;;;;;;;5.77;100.00;99224.00;6821713;26;20243;-61
2024/04/12 03:34:29;;;;;;;12.67;7.03;;;;;;;5.70;100.00;99229.13;6820378;26;20247;-60
2024/04/12 03:37:38;;;;;;;9.27;7.00;;;;;;;5.79;100.00;99224.63;6828415;26;20236;-56
2024/04/12 03:40:45;;;;;;;10.90;7.30;;;;;;;5.72;100.00;99228.97;6823305;26;20284;-61
2024/04/12 03:43:53;;;;;;;11.57;7.43;;;;;;;5.79;100.00;99224.63;6820415;26;20272;-61
2024/04/12 03:46:57;;;;;;;9.27;6.80;;;;;;;5.75;100.00;99227.78;6830875;26;20231;-61
2024/04/12 03:50:12;;;;;;;10.93;7.17;;;;;;;5.67;100.00;99229.50;6835475;25;20245;-61
2024/04/12 03:53:16;;;;;;;10.40;7.50;;;;;;;5.76;100.00;99229.44;6824490;26;20776;-61
2024/04/12 03:56:18;;;;;;;10.60;7.90;;;;;;;5.94;100.00;99235.34;6825070;26;20240;-59
2024/04/12 03:59:27;;;;;;;11.37;7.77;;;;;;;5.56;100.00;99205.25;6822668;26;20291;-58
2024/04/12 04:02:30;;;;;;;10.00;8.00;;;;;;;5.78;100.00;99230.09;6832674;26;20265;-57
2024/04/12 04:05:34;;;;;;;12.83;9.03;;;;;;;5.79;100.00;99240.50;6834496;26;21418;-62
2024/04/12 04:08:48;;;;;;;10.03;8.43;;;;;;;5.82;100.00;99234.88;6839134;26;21115;-61
2024/04/12 04:11:55;;;;;;;10.00;8.07;;;;;;;5.82;100.00;99224.31;6827878;26;20282;-60
2024/04/12 04:15:03;;;;;;;12.57;9.03;;;;;;;5.85;100.00;99246.91;6817740;26;20246;-60
2024/04/12 04:18:10;;;;;;;14.23;8.60;;;;;;;5.80;100.00;99255.38;6804696;26;20244;-57
2024/04/12 04:21:13;;;;;;;11.33;9.17;;;;;;;5.89;100.00;99242.94;6831281;26;20231;-61
2024/04/12 04:24:15;;;;;;;10.67;8.97;;;;;;;5.80;100.00;99250.06;6823945;26;20289;-60
2024/04/12 04:27:21;;;;;;;12.70;8.87;;;;;;;6.02;100.00;99248.53;6799996;26;20813;-60
2024/04/12 04:30:25;;;;;;;12.50;10.57;;;;;;;5.85;100.00;99234.50;6835820;26;20580;-58
2024/04/12 04:33:29;;;;;;;12.33;10.10;;;;;;;5.83;100.00;99246.28;6814566;26;20782;-60
2024/04/12 04:36:38;;;;;;;12.43;10.17;;;;;;;6.01;100.00;99246.88;6825093;26;20226;-60
2024/04/12 04:39:41;;;;;;;13.43;9.50;;;;;;;6.02;100.00;99245.06;6837675;26;20823;-58
2024/04/12 04:42:49;;;;;;;12.80;10.40;;;;;;;6.16;100.00;99245.13;6837565;25;20236;-58
2024/04/12 04:45:53;;;;;;;15.23;10.97;;;;;;;6.03;100.00;99254.63;6841491;26;20275;-60
2024/04/12 04:48:56;;;;;;;17.27;10.40;;;;;;;6.15;100.00;99248.75;6842199;25;20237;-59
2024/04/12 04:52:01;;;;;;;15.30;11.53;;;;;;;6.07;100.00;99256.75;6834115;26;20281;-60
2024/04/12 04:55:06;;;;;;;12.80;10.70;;;;;;;6.22;100.00;99254.19;6805358;26;20241;-59
2024/04/12 04:58:09;;;;;;;15.10;11.27;;;;;;;6.35;100.00;99256.25;6828233;25;20232;-60
2024/04/12 05:01:12;;;;;;;16.10;11.43;;;;;;;6.31;100.00;99260.28;6822663;26;20236;-59
2024/04/12 05:04:16;;;;;;;13.10;10.57;;;;;;;6.20;100.00;99253.53;6832371;26;20228;-60
2024/04/12 05:07:19;;;;;;;14.20;10.87;;;;;;;6.48;100.00;99264.44;6827585;26;20238;-59
2024/04/12 05:10:21;;;;;;;13.73;11.00;;;;;;;6.42;100.00;99265.97;6797574;26;20315;-57
2024/04/12 05:13:25;;;;;;;12.93;10.83;;;;;;;6.50;100.00;99273.00;6838998;25;20726;-60
2024/04/12 05:16:28;;;;;;;12.63;10.73;;;;;;;6.51;100.00;99261.44;6829926;26;20247;-56
2024/04/12 05:19:40;;;;;;;15.03;11.70;;;;;;;6.64;100.00;99266.97;6832209;26;20787;-57
2024/04/12 05:22:43;;;;;;;13.77;10.80;;;;;;;6.73;100.00;99265.06;6824146;26;20681;-60
2024/04/12 05:25:54;;;;;;;22.93;11.27;;;;;;;7.14;100.00;99265.56;6814179;26;20241;-59
2024/04/12 05:28:56;;;;;;;16.93;10.47;;;;;;;7.14;100.00;99270.84;6823473;26;20871;-57
2024/04/12 05:31:59;;;;;;;14.20;10.17;;;;;;;7.38;100.00;99264.47;6831063;25;20287;-60
2024/04/12 05:35:06;;;;;;;15.87;10.60;;;;;;;7.34;100.00;99260.56;6821392;26;20248;-58
2024/04/12 05:38:09;;;;;;;14.10;11.10;;;;;;;7.26;100.00;99259.81;6830064;26;20747;-59
2024/04/12 05:41:13;;;;;;;15.30;10.30;;;;;;;7.40;100.00;99266.94;6765201;26;20245;-59
2024/04/12 05:44:18;;;;;;;15.23;10.77;;;;;;;7.51;100.00;99261.19;6831846;26;20278;-59
2024/04/12 05:47:21;;;;;;;15.30;10.50;;;;;;;7.71;100.00;99267.56;6834246;25;20632;-58
2024/04/12 05:50:25;;;;;;;11.93;8.87;;;;;;;7.95;100.00;99263.78;6849794;25;20338;-59
2024/04/12 05:53:30;;;;;;;11.23;9.37;;;;;;;7.93;100.00;99271.13;6842245;25;20290;-58
2024/04/12 05:56:39;;;;;;;13.80;10.03;;;;;;;8.15;100.00;99264.03;6797112;26;20233;-58
2024/04/12 05:59:44;;;;;;;15.30;10.47;;;;;;;8.20;100.00;99258.97;6825544;26;20276;-59
2024/04/12 06:02:47;;;;;;;11.33;9.80;;;;;;;8.31;100.00;99252.34;6834390;26;20338;-58
2024/04/12 06:05:57;;;;;;;13.67;10.10;;;;;;;8.33;100.00;99247.69;6838432;26;20234;-59
2024/04/12 06:09:02;;;;;;;12.43;10.57;;;;;;;8.57;100.00;99249.19;6837468;26;20293;-58
2024/04/12 06:12:06;;;;;;;14.17;11.07;;;;;;;8.68;100.00;99235.38;6836218;26;20318;-59
2024/04/12 06:15:12;;;;;;;11.47;9.57;;;;;;;9.02;100.00;99249.75;6846896;26;20233;-59
2024/04/12 06:18:18;;;;;;;11.27;8.73;;;;;;;9.17;100.00;99253.16;6835327;26;20278;-54
2024/04/12 06:21:22;;;;;;;10.03;8.97;;;;;;;9.43;100.00;99241.03;6828736;26;20285;-60
2024/04/12 06:24:29;;;;;;;9.40;7.53;;;;;;;9.59;100.00;99251.34;6833822;26;20242;-57
2024/04/12 06:27:33;;;;;;;11.93;7.50;;;;;;;10.51;100.00;99245.56;6838692;25;20278;-59
2024/04/12 06:30:37;;;;;;;7.67;6.63;;;;;;;10.40;100.00;99248.81;6806937;26;20245;-60
2024/04/12 06:33:40;;;;;;;10.03;7.37;;;;;;;10.58;100.00;99254.38;6837051;26;20244;-58
2024/04/12 06:36:55;;;;;;;9.33;7.57;;;;;;;11.06;92.32;99250.72;6835686;25;20361;-59
2024/04/12 06:39:58;;;;;;;8.50;6.37;;;;;;;11.44;87.12;99250.88;6803590;26;20239;-60
2024/04/12 06:43:05;;;;;;;8.93;6.50;;;;;;;11.79;83.50;99256.72;6832266;26;20311;-61
2024/04/12 06:46:13;;;;;;;7.37;5.80;;;;;;;12.00;89.15;99252.16;6836623;26;20309;-59
2024/04/12 06:49:19;;;;;;;6.77;6.10;;;;;;;12.05;81.14;99253.16;6830798;25;20318;-59
2024/04/12 06:52:22;;;;;;;9.53;6.67;;;;;;;12.25;79.17;99249.56;6827682;26;20310;-59
2024/04/12 06:55:30;;;;;;;9.83;6.17;;;;;;;12.47;75.90;99242.88;6847493;26;20237;-57
2024/04/12 06:58:33;;;;;;;11.13;6.10;;;;;;;12.69;72.43;99253.19;6824591;26;20714;-59
2024/04/12 07:01:35;;;;;;;9.33;5.70;;;;;;;12.83;71.77;99252.06;6830965;26;20292;-58
2024/04/12 07:04:38;;;;;;;8.20;5.30;;;;;;;12.83;73.13;99252.88;6829735;26;20230;-58
2024/04/12 07:07:41;;;;;;;6.27;5.40;;;;;;;13.01;69.64;99245.97;6755908;26;20269;-62
2024/04/12 07:10:50;;;;;;;8.83;4.97;;;;;;;13.21;70.22;99243.94;6825031;26;20302;-60
2024/04/12 07:13:54;;;;;;;5.87;4.13;;;;;;;13.16;74.56;99241.91;6819155;25;20281;-59
2024/04/12 07:16:56;;;;;;;7.63;5.27;;;;;;;13.43;66.77;99249.72;6827113;25;21009;-60
2024/04/12 07:19:59;;;;;;;5.47;4.33;;;;;;;13.56;67.81;99228.16;6835223;26;20284;-60
2024/04/12 07:23:03;;;;;;;6.17;4.83;;;;;;;13.78;62.97;99249.13;6837506;25;20284;-59
2024/04/12 07:26:08;;;;;;;5.47;4.60;;;;;;;14.00;62.92;99231.56;6825514;26;20234;-55
2024/04/12 07:29:13;;;;;;;6.43;3.97;;;;;;;14.14;62.05;99256.34;6833677;26;20710;-58
2024/04/12 07:32:17;;;;;;;7.93;3.77;;;;;;;14.32;58.82;99245.53;6823823;26;20241;-59
2024/04/12 07:35:24;;;;;;;7.77;4.93;;;;;;;14.46;57.97;99255.03;6826527;26;20234;-56
2024/04/12 07:38:29;;;;;;;9.13;4.67;;;;;;;14.51;60.64;99254.41;6814854;26;20334;-58
2024/04/12 07:41:38;;;;;;;4.93;3.57;;;;;;;14.52;61.92;99252.53;6793209;26;20269;-58
2024/04/12 07:44:41;;;;;;;5.87;4.37;;;;;;;14.85;57.47;99258.22;6828488;26;20241;-57
2024/04/12 07:47:55;;;;;;;4.77;3.57;;;;;;;14.87;56.12;99266.03;6840853;26;20251;-60
2024/04/12 07:51:00;;;;;;;6.37;3.80;;;;;;;14.90;57.81;99258.34;6812552;25;20234;-58
2024/04/12 07:54:11;;;;;;;4.93;3.53;;;;;;;15.16;56.57;99264.31;6819741;26;20238;-56
2024/04/12 07:57:15;;;;;;;7.67;4.20;;;;;;;15.21;55.49;99267.94;6819386;25;20235;-58
2024/04/12 08:00:35;;;;;;;6.97;3.80;;;;;;;15.04;57.38;99272.38;6826999;26;20763;-54
2024/04/12 08:03:56;;;;;;;4.73;3.43;;;;;;;15.18;61.43;99287.22;6816788;26;20273;-58
2024/04/12 08:07:06;;;;;;;7.10;4.97;;;;;;;15.17;58.58;99268.63;6823057;26;20219;-57
2024/04/12 08:10:27;;;;;;;7.67;4.63;;;;;;;15.36;55.38;99269.34;6832447;26;20275;-59
2024/04/12 08:13:37;;;;;;;4.87;3.90;;;;;;;15.43;56.93;99267.38;6846869;26;20245;-59
2024/04/12 08:16:46;;;;;;;3.93;3.40;;;;;;;15.49;56.78;99269.94;6845459;26;20615;-57
2024/04/12 08:19:48;;;;;;;5.30;3.30;;;;;;;15.54;55.85;99269.22;6811815;26;20229;-58
2024/04/12 08:22:52;;;;;;;6.60;4.13;;;;;;;15.44;53.55;99266.31;6801336;26;20300;-57
2024/04/12 08:25:58;;;;;;;7.57;4.07;;;;;;;15.27;53.49;99268.03;6844121;26;20299;-57
2024/04/12 08:29:01;;;;;;;8.30;4.60;;;;;;;15.38;55.03;99260.00;6839468;26;20835;-57
2024/04/12 08:35:19;;;;;;;5.40;3.50;;;;;;;15.72;56.33;99257.56;6830967;26;20656;-57
2024/04/12 08:38:23;;;;;;;5.30;3.47;;;;;;;16.18;51.12;99261.19;6843632;26;20234;-56
2024/04/12 08:41:31;;;;;;;5.30;3.90;;;;;;;15.93;50.16;99259.63;6841854;25;20276;-59
2024/04/12 08:44:35;;;;;;;6.00;3.70;;;;;;;15.90;52.79;99259.25;6816954;26;20221;-57
2024/04/12 08:47:51;;;;;;;4.67;3.83;;;;;;;15.90;51.10;99245.81;6829556;26;20284;-57
2024/04/12 08:51:04;;;;;;;6.53;3.80;;;;;;;16.05;51.05;99248.00;6829077;25;20255;-57
2024/04/12 08:54:11;;;;;;;8.67;3.60;;;;;;;16.07;51.71;99243.22;6835214;26;20276;-58
2024/04/12 08:57:14;;;;;;;5.13;3.57;;;;;;;16.09;53.28;99243.78;6813131;26;20241;-58
2024/04/12 09:00:21;;;;;;;5.10;3.97;;;;;;;16.05;53.26;99246.13;6831864;26;20234;-54
2024/04/12 09:03:35;;;;;;;6.23;3.87;;;;;;;16.12;51.96;99246.00;6821070;26;20634;-56
2024/04/12 09:06:38;;;;;;;4.57;3.70;;;;;;;16.29;50.37;99249.56;6823658;25;20289;-56
2024/04/12 09:09:41;;;;;;;7.53;3.27;;;;;;;16.20;53.33;99243.72;6822705;26;20354;-57
2024/04/12 09:12:44;;;;;;;2.93;2.60;;;;;;;16.33;50.73;99250.72;6839047;26;20234;-58
2024/04/12 09:15:49;;;;;;;4.13;3.70;;;;;;;16.45;51.61;99246.09;6791929;26;20229;-58
2024/04/12 09:18:54;;;;;;;7.30;4.50;;;;;;;16.40;50.68;99245.16;6840976;26;20287;-55
2024/04/12 09:22:02;;;;;;;7.23;3.20;;;;;;;16.52;50.43;99246.75;6842773;26;20699;-58
2024/04/12 09:25:14;;;;;;;5.87;3.30;;;;;;;16.67;50.26;99240.84;6839424;26;20230;-58
2024/04/12 09:28:17;;;;;;;5.07;3.00;;;;;;;16.77;48.83;99226.75;6824904;26;20285;-58
2024/04/12 09:34:47;;;;;;;4.63;3.20;;;;;;;17.00;51.68;99240.06;6834287;26;20659;-58
2024/04/12 09:38:01;;;;;;;6.30;3.07;;;;;;;17.03;50.15;99231.50;6825996;26;20234;-58
2024/04/12 09:41:13;;;;;;;4.43;3.10;;;;;;;17.08;45.07;99227.25;6832679;26;20225;-57
2024/04/12 09:44:26;;;;;;;3.63;2.90;;;;;;;16.95;51.13;99234.59;6844836;26;20226;-58
2024/04/12 10:37:58;;;;;;;3.70;2.63;;;;;;;17.66;45.36;99153.16;6813175;26;20299;-56
2024/04/12 10:41:07;;;;;;;3.47;2.27;;;;;;;17.96;43.52;99158.09;6827842;26;20247;-58
2024/04/12 10:44:10;;;;;;;3.93;2.70;;;;;;;18.20;42.53;99158.63;6832086;26;20234;-58
2024/04/12 10:47:13;;;;;;;5.37;2.57;;;;;;;18.08;41.80;99148.00;6828329;26;20288;-57
2024/04/12 10:50:19;;;;;;;2.10;1.90;;;;;;;18.09;42.77;99146.91;6849546;25;20238;-58
2024/04/12 10:53:22;;;;;;;4.73;2.17;;;;;;;18.24;42.58;99143.56;6812951;26;20233;-58
2024/04/12 10:56:26;;;;;;;3.37;1.87;;;;;;;18.41;41.38;99146.13;6795902;26;20234;-57
2024/04/12 10:59:30;;;;;;;3.13;1.60;;;;;;;18.41;39.63;99132.63;6832405;26;20225;-58
2024/04/12 11:02:33;;;;;;;3.53;2.30;;;;;;;18.59;39.37;99132.25;6839711;25;20283;-59
2024/04/12 11:05:40;;;;;;;3.13;2.20;;;;;;;18.58;38.45;99124.41;6826362;26;20274;-58
2024/04/12 11:08:42;;;;;;;4.10;2.40;;;;;;;18.58;39.78;99124.41;6833753;26;20230;-57
2024/04/12 11:11:46;;;;;;;3.57;2.20;;;;;;;18.50;40.96;99125.69;6831485;26;20237;-59
2024/04/12 11:15:00;;;;;;;3.37;2.10;;;;;;;18.62;40.72;99114.69;6833015;26;20663;-58
2024/04/12 11:31:47;;;;;;;3.30;1.90;;;;;;;18.89;35.63;99082.25;6821521;26;20245;-57
2024/04/12 11:34:51;;;;;;;3.87;2.00;;;;;;;19.18;34.93;99099.69;6832876;26;20793;-56
2024/04/12 11:37:55;;;;;;;4.17;2.03;;;;;;;18.98;36.23;99094.19;6823514;26;20284;-58
2024/04/12 11:40:57;;;;;;;2.47;1.53;;;;;;;18.91;37.01;99097.09;6830908;26;20634;-56
2024/04/12 11:44:00;;;;;;;3.60;1.57;;;;;;;19.01;33.96;99088.25;6827923;25;20279;-56
2024/04/12 11:47:04;;;;;;;3.50;1.70;;;;;;;19.14;33.77;99089.69;6841360;26;20271;-56
2024/04/12 11:50:10;;;;;;;2.73;1.53;;;;;;;19.24;36.21;99087.03;6838159;25;20317;-58
2024/04/12 11:53:13;;;;;;;3.10;1.60;;;;;;;19.33;35.20;99093.56;6825012;26;20310;-59
2024/04/12 11:56:17;;;;;;;2.57;1.60;;;;;;;19.22;34.74;99083.78;6796490;26;20283;-59
2024/04/12 11:59:20;;;;;;;5.50;1.83;;;;;;;19.33;33.88;99071.94;6820883;26;20595;-58
2024/04/12 12:02:24;;;;;;;2.67;1.63;;;;;;;19.34;33.79;99066.25;6835339;26;20237;-57
2024/04/12 12:05:28;;;;;;;8.13;1.90;;;;;;;19.32;33.38;99079.22;6828628;26;20318;-57
2024/04/12 12:08:40;;;;;;;1.70;1.50;;;;;;;19.36;32.70;99062.47;6842364;26;20272;-59
2024/04/12 12:11:43;;;;;;;3.00;1.90;;;;;;;19.44;35.30;99061.97;6812062;26;20225;-58
2024/04/12 12:14:45;;;;;;;6.30;2.13;;;;;;;19.36;35.29;99052.50;6759282;26;20253;-58
2024/04/12 12:17:48;;;;;;;4.60;2.00;;;;;;;19.46;33.61;99052.53;6828581;26;20230;-57
2024/04/12 12:20:51;;;;;;;2.60;1.30;;;;;;;19.53;37.70;99046.84;6836476;26;20238;-59
2024/04/12 12:23:55;;;;;;;3.37;1.63;;;;;;;19.73;32.03;99038.81;6839982;26;20304;-58
2024/04/12 12:26:58;;;;;;;2.90;1.70;;;;;;;19.76;30.83;99048.31;6838877;25;20641;-57
2024/04/12 12:30:04;;;;;;;2.83;1.60;;;;;;;19.75;32.69;99049.34;6820126;26;20238;-58
2024/04/12 12:33:10;;;;;;;3.10;1.73;;;;;;;19.66;33.98;99034.75;6820445;26;20246;-58
2024/04/12 12:36:16;;;;;;;2.97;2.00;;;;;;;19.51;31.69;99032.81;6816423;26;20246;-57
2024/04/12 12:39:23;;;;;;;5.00;1.93;;;;;;;19.55;32.42;99025.75;6815856;26;20898;-59
2024/04/12 12:42:25;;;;;;;2.00;1.80;;;;;;;19.61;33.78;99022.06;6822550;26;20235;-56
2024/04/12 12:45:28;;;;;;;3.87;1.77;;;;;;;19.90;33.62;99019.66;6832617;26;20281;-58
2024/04/12 12:48:31;;;;;;;4.93;1.60;;;;;;;19.79;32.46;99009.88;6781506;26;20247;-58
2024/04/12 12:51:38;;;;;;;3.63;1.40;;;;;;;19.76;32.44;99003.13;6817919;25;20246;-58
2024/04/12 12:54:42;;;;;;;2.60;1.97;;;;;;;19.88;33.46;98999.34;6816250;26;20311;-57
2024/04/12 12:57:46;;;;;;;3.23;1.90;;;;;;;19.86;31.29;99002.34;6833598;26;21078;-57
2024/04/12 13:00:48;;;;;;;5.37;1.77;;;;;;;19.89;32.26;99004.47;6830191;26;20234;-56
2024/04/12 13:03:51;;;;;;;3.17;1.90;;;;;;;19.86;32.15;98998.81;6829637;26;20314;-58
2024/04/12 13:06:54;;;;;;;4.53;2.17;;;;;;;20.01;31.32;99001.53;6836927;25;20238;-56
2024/04/12 13:09:56;;;;;;;4.10;1.97;;;;;;;20.02;32.74;98990.44;6828598;26;20234;-57
2024/04/12 13:13:04;;;;;;;5.83;2.10;;;;;;;19.94;31.80;98979.34;6839934;26;20229;-57
2024/04/12 13:16:15;;;;;;;4.73;2.03;;;;;;;20.06;33.20;98980.69;6818673;26;20335;-59
2024/04/12 13:19:21;;;;;;;5.03;2.13;;;;;;;20.12;34.72;98976.09;6825209;26;20231;-57
2024/04/12 13:22:24;;;;;;;3.50;1.60;;;;;;;20.22;33.84;98976.06;6798469;26;20241;-56
2024/04/12 13:25:27;;;;;;;2.63;1.60;;;;;;;20.38;32.41;98970.63;6798312;26;20770;-58
2024/04/12 13:28:30;;;;;;;3.53;1.70;;;;;;;20.37;30.76;98967.13;6820198;26;20932;-58
2024/04/12 13:31:33;;;;;;;3.20;1.80;;;;;;;20.35;30.33;98966.59;6815655;26;20745;-57
2024/04/12 13:34:37;;;;;;;3.50;1.63;;;;;;;20.45;30.92;98960.34;6836945;26;20301;-56
2024/04/12 13:37:40;;;;;;;3.70;1.57;;;;;;;20.45;31.59;98966.56;6831640;26;20246;-58
2024/04/12 13:40:45;;;;;;;6.50;1.80;;;;;;;20.40;31.68;98958.47;6823692;26;20828;-57
2024/04/12 13:43:49;;;;;;;3.03;1.57;;;;;;;20.41;32.95;98943.03;6799203;26;20227;-59
2024/04/12 13:53:36;;;;;;;5.30;1.90;;;;;;;20.30;34.16;98940.34;6832570;26;20233;-59
2024/04/12 13:56:39;;;;;;;5.90;2.10;;;;;;;20.28;35.84;98922.75;6840922;26;20288;-58
2024/04/12 13:59:44;;;;;;;3.67;1.97;;;;;;;20.20;35.88;98926.84;6839554;26;20350;-57
2024/04/12 14:02:47;;;;;;;4.17;2.23;;;;;;;20.42;33.82;98912.16;6793076;26;20250;-58
2024/04/12 14:05:56;;;;;;;4.50;2.03;;;;;;;20.23;36.30;98906.53;6840019;26;20288;-57
2024/04/12 14:09:03;;;;;;;3.63;1.70;;;;;;;20.09;35.67;98900.88;6791913;26;20294;-58
2024/04/12 14:12:06;;;;;;;3.80;1.63;;;;;;;20.27;36.85;98905.69;6815921;26;20238;-55
2024/04/12 14:15:08;;;;;;;4.50;1.73;;;;;;;20.26;35.66;98909.50;6827362;26;20616;-58
2024/04/12 14:18:11;;;;;;;4.10;1.53;;;;;;;20.36;35.30;98905.94;6826381;26;20227;-59
2024/04/12 14:21:17;;;;;;;2.87;1.40;;;;;;;20.12;37.26;98903.03;6810763;26;20310;-59
2024/04/12 14:27:46;;;;;;;4.63;1.70;;;;;;;20.31;32.87;98895.16;6828667;26;21052;-57
2024/04/12 14:30:51;;;;;;;3.20;1.80;;;;;;;20.44;32.82;98891.81;6825065;26;20238;-56
2024/04/12 14:33:54;;;;;;;2.80;1.57;;;;;;;20.35;34.53;98899.72;6814804;26;20297;-58
2024/04/12 14:36:57;;;;;;;4.43;1.47;;;;;;;20.27;33.76;98891.38;6816056;26;20754;-58
2024/04/12 14:40:06;;;;;;;2.60;1.27;;;;;;;20.08;36.58;98881.13;6836606;26;20281;-59
2024/04/12 14:43:09;;;;;;;4.57;1.53;;;;;;;20.22;33.01;98884.06;6814307;26;20256;-59
2024/04/12 14:46:12;;;;;;;2.97;1.93;;;;;;;19.99;35.77;98876.53;6830680;26;20288;-59
2024/04/12 14:49:14;;;;;;;3.07;1.60;;;;;;;20.22;33.24;98881.34;6836269;25;20305;-59
2024/04/12 14:52:17;;;;;;;2.30;1.50;;;;;;;20.07;34.01;98868.69;6828938;26;20237;-57
2024/04/12 14:55:20;;;;;;;2.03;1.27;;;;;;;20.02;36.43;98870.59;6829759;26;20273;-57
2024/04/12 14:58:28;;;;;;;2.97;1.50;;;;;;;20.32;33.63;98858.88;6837411;26;20298;-59
2024/04/12 15:01:31;;;;;;;3.13;1.33;;;;;;;20.35;32.92;98866.44;6832217;26;20345;-58
2024/04/12 15:48:13;;;;;;;3.83;1.30;;;;;;;19.37;38.21;98824.41;6829412;26;20229;-59
2024/04/12 15:51:16;;;;;;;3.60;1.40;;;;;;;19.11;40.89;98820.88;6824006;25;20225;-58
2024/04/12 15:54:26;;;;;;;1.80;1.60;;;;;;;18.83;39.78;98816.81;6815683;26;20281;-58
2024/04/12 16:10:54;;;;;;;2.63;1.40;;;;;;;17.97;44.89;98822.69;6820364;26;20281;-59
2024/04/12 16:13:56;;;;;;;3.60;1.40;;;;;;;17.87;45.99;98815.34;6825574;26;20799;-58
2024/04/12 16:16:59;;;;;;;2.23;1.57;;;;;;;17.82;45.80;98811.81;6816714;26;20230;-58
2024/04/12 16:20:02;;;;;;;3.93;1.67;;;;;;;17.79;45.80;98813.97;6817235;26;20229;-59
2024/04/12 16:23:05;;;;;;;2.10;1.43;;;;;;;17.74;48.44;98815.84;6834712;26;20904;-57
2024/04/12 16:26:10;;;;;;;2.43;1.33;;;;;;;17.67;48.35;98818.69;6796703;26;20933;-59
2024/04/12 16:29:14;;;;;;;3.77;1.70;;;;;;;17.52;51.26;98815.91;6821693;26;20277;-58
2024/04/12 16:32:18;;;;;;;3.57;1.47;;;;;;;17.57;51.11;98813.25;6813931;26;20238;-57
2024/04/12 16:35:20;;;;;;;2.77;1.73;;;;;;;17.43;52.56;98812.06;6821279;26;20238;-58
2024/04/12 16:38:25;;;;;;;5.43;2.00;;;;;;;17.31;53.05;98808.75;6824036;26;20286;-57
2024/04/12 16:41:32;;;;;;;2.80;1.70;;;;;;;17.22;53.47;98817.31;6835317;26;20279;-58
2024/04/12 16:44:35;;;;;;;3.93;1.83;;;;;;;17.06;54.66;98807.47;6847370;26;20230;-56
2024/04/12 16:47:37;;;;;;;4.77;2.17;;;;;;;16.99;55.28;98813.09;6824409;26;20305;-57